Time;durP1;ratioP1;P1;durP2;ratioP2;P2;SDS_P1;SDS_P2;PMS_P1;PMS_P2;Temp;Humidity;BMP_temperature;BMP_pressure;BME280_temperature;BME280_humidity;BME280_pressure;Samples;Min_cycle;Max_cycle;Signal;HPM_P1;HPM_P2
2022/03/08 00:02:09;;;;;;;13.20;9.20;;;5.20;51.70;;;;;;5052366;28;20025;-68
2022/03/08 00:04:34;;;;;;;14.25;9.70;;;5.20;51.80;;;;;;5052793;28;20032;-67
2022/03/08 00:07:01;;;;;;;16.60;9.50;;;5.20;51.80;;;;;;5052236;28;20056;-67
2022/03/08 00:09:28;;;;;;;13.75;9.57;;;5.10;52.10;;;;;;5052394;28;20473;-67
2022/03/08 00:11:53;;;;;;;16.52;9.55;;;5.10;52.00;;;;;;5051931;28;20082;-67
2022/03/08 00:14:19;;;;;;;15.23;9.70;;;5.10;52.10;;;;;;5052279;28;20556;-67
2022/03/08 00:16:46;;;;;;;14.68;9.10;;;5.10;52.20;;;;;;5052397;28;20021;-67
2022/03/08 00:19:11;;;;;;;15.23;9.90;;;5.00;52.50;;;;;;5033821;28;20052;-67
2022/03/08 00:21:38;;;;;;;15.25;9.05;;;5.00;52.60;;;;;;5052120;28;20080;-67
2022/03/08 00:24:04;;;;;;;12.82;8.70;;;4.90;52.80;;;;;;5051641;28;20040;-67
2022/03/08 00:26:30;;;;;;;16.70;9.23;;;4.70;52.90;;;;;;5034450;28;20065;-67
2022/03/08 00:28:56;;;;;;;15.20;9.40;;;4.70;53.00;;;;;;5033641;28;20080;-67
2022/03/08 00:31:21;;;;;;;15.85;9.73;;;4.70;53.20;;;;;;5051866;28;20037;-67
2022/03/08 00:33:47;;;;;;;18.45;9.95;;;4.70;53.40;;;;;;5033526;28;20067;-68
2022/03/08 00:36:13;;;;;;;12.35;9.10;;;4.60;53.60;;;;;;5051860;28;20033;-67
2022/03/08 00:38:39;;;;;;;16.38;10.40;;;4.60;53.30;;;;;;5017603;28;20021;-69
2022/03/08 00:41:04;;;;;;;14.13;9.18;;;4.60;53.20;;;;;;5051008;28;20545;-67
2022/03/08 00:43:30;;;;;;;16.25;10.15;;;4.70;53.20;;;;;;5052314;28;20135;-68
2022/03/08 00:45:56;;;;;;;17.98;9.95;;;4.60;53.10;;;;;;5051274;28;20028;-68
2022/03/08 00:48:22;;;;;;;16.40;9.85;;;4.60;53.40;;;;;;5051736;28;20032;-67
2022/03/08 00:50:47;;;;;;;14.18;9.13;;;4.60;53.40;;;;;;5051097;28;20029;-67
2022/03/08 00:53:14;;;;;;;14.63;9.50;;;4.60;53.40;;;;;;5051990;28;20037;-67
2022/03/08 00:55:40;;;;;;;14.88;9.75;;;4.60;53.30;;;;;;5050900;28;20040;-70
2022/03/08 00:58:07;;;;;;;16.00;10.02;;;4.60;53.30;;;;;;5051219;28;20024;-66
2022/03/08 01:00:35;;;;;;;21.27;10.00;;;4.50;53.40;;;;;;5033828;28;20052;-66
2022/03/08 01:03:00;;;;;;;15.43;9.55;;;4.50;53.30;;;;;;5033203;28;20163;-67
2022/03/08 01:05:27;;;;;;;14.00;9.20;;;4.50;53.40;;;;;;5051000;28;20482;-67
2022/03/08 01:07:53;;;;;;;16.35;9.40;;;4.50;53.30;;;;;;5032371;28;20158;-68
2022/03/08 01:10:21;;;;;;;17.23;9.48;;;4.60;53.30;;;;;;5051116;28;20035;-68
2022/03/08 01:12:47;;;;;;;14.52;9.15;;;4.60;53.30;;;;;;5051046;28;20075;-68
2022/03/08 01:15:14;;;;;;;15.90;9.77;;;4.60;53.10;;;;;;5051151;28;20021;-68
2022/03/08 01:17:41;;;;;;;18.20;9.40;;;4.60;53.30;;;;;;5051096;28;20028;-70
2022/03/08 01:20:09;;;;;;;17.23;9.70;;;4.50;53.30;;;;;;5032927;28;20028;-68
2022/03/08 01:22:36;;;;;;;14.93;9.48;;;4.50;53.40;;;;;;5051420;28;20100;-68
2022/03/08 01:25:03;;;;;;;15.13;9.20;;;4.50;53.80;;;;;;5050642;28;20054;-68
2022/03/08 01:27:29;;;;;;;17.33;9.88;;;4.40;53.80;;;;;;5051955;28;20021;-68
2022/03/08 01:29:54;;;;;;;15.60;10.00;;;4.40;54.10;;;;;;5033254;28;20028;-68
2022/03/08 01:32:20;;;;;;;14.02;10.27;;;4.30;53.80;;;;;;5051364;28;20021;-67
2022/03/08 01:34:46;;;;;;;14.93;9.95;;;4.30;53.80;;;;;;5050820;28;20025;-68
2022/03/08 01:37:12;;;;;;;14.80;9.48;;;4.30;53.80;;;;;;5051589;28;20021;-68
2022/03/08 01:39:38;;;;;;;14.07;9.73;;;4.30;53.90;;;;;;5051573;28;20031;-68
2022/03/08 01:42:13;;;;;;;16.90;10.65;;;4.30;53.80;;;;;;5033573;28;20118;-68
2022/03/08 01:44:40;;;;;;;15.88;10.23;;;4.30;53.80;;;;;;5033108;28;20029;-69
2022/03/08 01:47:07;;;;;;;14.07;10.20;;;4.30;53.80;;;;;;5033078;28;20029;-68
2022/03/08 01:49:32;;;;;;;15.55;9.32;;;4.30;53.80;;;;;;5051215;28;20051;-67
2022/03/08 01:51:58;;;;;;;16.80;10.73;;;4.30;53.70;;;;;;5032939;28;20362;-67
2022/03/08 01:54:24;;;;;;;15.88;10.48;;;4.30;53.70;;;;;;5051025;28;20072;-67
2022/03/08 01:56:50;;;;;;;16.60;10.55;;;4.20;53.60;;;;;;5050846;28;20071;-67
2022/03/08 01:59:15;;;;;;;16.42;11.10;;;4.30;53.60;;;;;;5033247;28;20032;-67
2022/03/08 02:01:41;;;;;;;16.55;10.23;;;4.30;53.40;;;;;;5032384;28;20028;-69
2022/03/08 02:04:07;;;;;;;15.60;10.15;;;4.30;53.30;;;;;;5050528;28;20466;-68
2022/03/08 02:06:33;;;;;;;17.45;10.57;;;4.30;53.10;;;;;;5032720;28;20025;-69
2022/03/08 02:08:58;;;;;;;16.65;11.10;;;4.30;52.90;;;;;;5031799;28;20229;-68
2022/03/08 02:11:24;;;;;;;17.88;11.05;;;4.30;52.70;;;;;;5050842;28;20029;-68
2022/03/08 02:13:50;;;;;;;19.23;11.50;;;4.30;52.70;;;;;;5050190;28;20037;-68
2022/03/08 02:16:16;;;;;;;22.83;11.48;;;4.30;52.70;;;;;;5032821;28;20025;-68
2022/03/08 02:18:42;;;;;;;19.02;11.18;;;4.20;52.60;;;;;;5032420;28;20362;-70
2022/03/08 02:21:08;;;;;;;22.98;11.50;;;4.20;52.70;;;;;;5050662;28;20423;-67
2022/03/08 02:23:35;;;;;;;18.20;11.85;;;4.20;52.80;;;;;;5050838;28;20029;-69
2022/03/08 02:26:01;;;;;;;15.65;11.20;;;4.20;53.00;;;;;;5050236;28;20087;-67
2022/03/08 02:28:28;;;;;;;17.83;12.23;;;4.20;52.80;;;;;;5032667;28;20029;-69
2022/03/08 02:30:54;;;;;;;18.02;11.82;;;4.20;52.80;;;;;;5050030;28;20091;-67
2022/03/08 02:33:20;;;;;;;20.00;12.07;;;4.20;52.80;;;;;;5032945;28;20041;-67
2022/03/08 02:35:46;;;;;;;21.73;12.43;;;4.30;52.70;;;;;;5050482;28;20047;-68
2022/03/08 02:38:12;;;;;;;17.70;11.63;;;4.30;52.70;;;;;;5054656;28;20033;-68
2022/03/08 02:40:41;;;;;;;19.63;12.05;;;4.30;52.60;;;;;;5036534;28;20025;-67
2022/03/08 02:43:09;;;;;;;18.50;11.27;;;4.30;52.40;;;;;;5036283;28;20455;-52
2022/03/08 02:45:36;;;;;;;17.33;12.02;;;4.30;52.30;;;;;;5054598;28;20037;-54
2022/03/08 02:48:03;;;;;;;18.88;12.23;;;4.30;52.10;;;;;;5054037;28;20017;-55
2022/03/08 02:50:28;;;;;;;16.83;11.43;;;4.30;52.60;;;;;;5054560;28;20033;-51
2022/03/08 02:52:56;;;;;;;20.05;12.88;;;4.30;51.90;;;;;;5053144;28;20037;-51
2022/03/08 02:55:25;;;;;;;17.60;12.18;;;4.30;51.80;;;;;;5054457;28;20107;-52
2022/03/08 02:57:52;;;;;;;17.63;12.27;;;4.30;51.60;;;;;;5053746;28;20028;-54
2022/03/08 03:00:19;;;;;;;18.27;12.10;;;4.30;51.60;;;;;;5036548;28;20268;-51
2022/03/08 03:02:46;;;;;;;20.52;12.23;;;4.30;51.60;;;;;;5035688;28;20035;-54
2022/03/08 03:05:12;;;;;;;17.42;11.75;;;4.30;51.50;;;;;;5054237;28;20029;-55
2022/03/08 03:07:39;;;;;;;19.20;12.80;;;4.40;51.50;;;;;;5035991;28;20070;-52
2022/03/08 03:10:08;;;;;;;19.25;13.02;;;4.40;51.10;;;;;;5053942;28;20520;-56
2022/03/08 03:12:34;;;;;;;23.60;12.60;;;4.50;51.00;;;;;;5053818;28;20477;-53
2022/03/08 03:14:59;;;;;;;19.02;12.98;;;4.50;50.80;;;;;;5035032;28;20025;-55
2022/03/08 03:17:25;;;;;;;19.65;13.07;;;4.60;50.60;;;;;;5053874;28;20485;-56
2022/03/08 03:19:51;;;;;;;18.73;12.60;;;4.60;50.50;;;;;;5053085;28;20029;-52
2022/03/08 03:22:16;;;;;;;20.00;12.40;;;4.70;50.30;;;;;;5053626;28;20485;-55
2022/03/08 03:24:42;;;;;;;18.75;12.43;;;4.70;50.20;;;;;;5053298;28;20029;-58
2022/03/08 03:27:08;;;;;;;17.73;13.38;;;4.70;50.10;;;;;;5053380;28;20112;-54
2022/03/08 03:29:34;;;;;;;20.83;13.48;;;4.70;50.10;;;;;;5035290;28;20031;-55
2022/03/08 03:31:59;;;;;;;20.15;13.52;;;4.60;50.10;;;;;;5053291;28;20025;-55
2022/03/08 03:34:25;;;;;;;19.25;13.90;;;4.60;50.20;;;;;;5053392;28;20033;-53
2022/03/08 03:36:51;;;;;;;21.20;13.98;;;4.70;50.10;;;;;;5052545;28;20028;-56
2022/03/08 03:39:17;;;;;;;22.80;13.30;;;4.80;49.90;;;;;;5053242;28;20104;-55
2022/03/08 03:41:42;;;;;;;19.90;12.85;;;4.80;49.80;;;;;;5052708;28;20032;-55
2022/03/08 03:44:08;;;;;;;18.05;12.98;;;4.80;50.40;;;;;;5036237;28;20057;-53
2022/03/08 03:46:34;;;;;;;19.05;12.52;;;4.70;49.80;;;;;;5053963;28;20083;-56
2022/03/08 03:49:00;;;;;;;19.92;12.93;;;4.70;49.90;;;;;;5052973;28;20281;-55
2022/03/08 03:51:25;;;;;;;18.42;13.25;;;4.70;50.10;;;;;;5036136;28;20049;-55
2022/03/08 03:53:51;;;;;;;17.90;12.32;;;4.70;50.00;;;;;;5053420;28;20064;-55
2022/03/08 03:56:17;;;;;;;18.08;13.48;;;4.70;50.00;;;;;;5053407;28;20025;-56
2022/03/08 03:58:43;;;;;;;18.75;12.82;;;4.70;49.90;;;;;;5034965;28;20078;-55
2022/03/08 04:01:09;;;;;;;16.70;12.68;;;4.70;49.80;;;;;;5053281;28;20108;-51
2022/03/08 04:03:35;;;;;;;20.33;13.25;;;4.70;49.90;;;;;;5035220;28;20055;-54
2022/03/08 04:06:01;;;;;;;20.15;13.18;;;4.70;49.90;;;;;;5052141;28;20040;-53
2022/03/08 04:08:26;;;;;;;20.58;13.10;;;4.70;49.90;;;;;;5052410;28;20036;-51
2022/03/08 04:10:52;;;;;;;19.27;12.75;;;4.60;50.00;;;;;;5034232;28;20124;-53
2022/03/08 04:13:37;;;;;;;19.08;12.88;;;4.60;50.00;;;;;;5034022;28;20033;-56
2022/03/08 04:16:03;;;;;;;19.48;12.75;;;4.50;50.10;;;;;;5033874;28;20519;-51
2022/03/08 04:18:29;;;;;;;21.02;13.40;;;4.50;50.10;;;;;;5051504;28;20021;-58
2022/03/08 04:20:55;;;;;;;19.15;13.77;;;4.40;50.30;;;;;;5041612;28;20481;-54
2022/03/08 04:23:21;;;;;;;18.67;12.43;;;4.40;50.40;;;;;;5072111;28;20548;-53
2022/03/08 04:25:47;;;;;;;19.15;13.88;;;4.30;50.50;;;;;;5071039;28;20503;-54
2022/03/08 04:28:12;;;;;;;23.80;13.07;;;4.30;50.60;;;;;;5072076;28;20350;-55
2022/03/08 04:30:38;;;;;;;20.40;12.85;;;4.30;50.70;;;;;;5068893;28;20161;-57
2022/03/08 04:33:04;;;;;;;19.33;13.63;;;4.30;50.80;;;;;;5070852;28;20279;-54
2022/03/08 04:35:29;;;;;;;22.30;12.73;;;4.30;50.80;;;;;;5071145;28;20473;-57
2022/03/08 04:37:55;;;;;;;17.92;12.57;;;4.30;50.80;;;;;;5071839;28;20473;-57
2022/03/08 04:40:21;;;;;;;18.65;12.68;;;4.30;50.80;;;;;;5072578;28;20100;-54
2022/03/08 04:42:47;;;;;;;20.98;13.02;;;4.30;51.00;;;;;;5071766;28;20029;-54
2022/03/08 04:45:13;;;;;;;19.60;12.98;;;4.30;51.00;;;;;;5071133;28;20525;-51
2022/03/08 04:47:40;;;;;;;19.23;12.90;;;4.30;51.00;;;;;;5070967;28;20491;-56
2022/03/08 04:50:08;;;;;;;19.63;13.13;;;4.20;51.00;;;;;;5070000;28;20252;-50
2022/03/08 04:52:34;;;;;;;18.70;12.82;;;4.20;51.20;;;;;;5071935;28;20037;-54
2022/03/08 04:55:00;;;;;;;22.83;14.13;;;4.20;51.20;;;;;;5071178;28;20473;-56
2022/03/08 04:57:26;;;;;;;20.48;13.00;;;4.10;51.20;;;;;;5071641;28;20025;-56
2022/03/08 04:59:52;;;;;;;20.30;14.32;;;4.10;51.30;;;;;;5070165;28;20049;-56
2022/03/08 05:02:18;;;;;;;21.25;14.13;;;4.10;51.40;;;;;;5071331;28;20103;-56
2022/03/08 05:04:44;;;;;;;21.23;12.77;;;4.10;51.50;;;;;;5071342;28;20016;-60
2022/03/08 05:07:09;;;;;;;19.88;12.95;;;4.00;51.70;;;;;;5071869;28;20031;-51
2022/03/08 05:09:35;;;;;;;17.38;12.00;;;3.90;51.90;;;;;;5071344;28;20094;-56
2022/03/08 05:12:01;;;;;;;17.95;12.27;;;3.90;51.90;;;;;;5069639;28;20090;-53
2022/03/08 05:14:27;;;;;;;21.60;12.93;;;4.00;52.00;;;;;;5070038;28;20503;-53
2022/03/08 05:16:53;;;;;;;18.55;12.73;;;4.00;52.00;;;;;;5070872;28;20020;-58
2022/03/08 05:19:19;;;;;;;18.58;12.13;;;4.00;52.00;;;;;;5070177;28;20035;-54
2022/03/08 05:21:45;;;;;;;20.77;12.82;;;4.00;52.00;;;;;;5069458;28;20160;-60
2022/03/08 05:24:11;;;;;;;19.13;12.80;;;4.00;52.00;;;;;;5070618;28;20032;-55
2022/03/08 05:26:37;;;;;;;20.90;13.27;;;4.00;52.30;;;;;;5069692;28;20119;-56
2022/03/08 05:29:07;;;;;;;23.20;12.57;;;3.90;52.30;;;;;;5069923;28;20017;-56
2022/03/08 05:31:34;;;;;;;18.70;12.55;;;3.80;52.40;;;;;;5071500;28;20028;-55
2022/03/08 05:34:00;;;;;;;21.17;12.50;;;3.90;52.40;;;;;;5069412;28;20032;-56
2022/03/08 05:36:26;;;;;;;19.65;12.30;;;3.90;52.50;;;;;;5070283;28;20486;-55
2022/03/08 05:38:52;;;;;;;19.13;12.85;;;3.80;53.20;;;;;;5069776;28;20104;-56
2022/03/08 05:41:18;;;;;;;21.65;13.23;;;3.80;52.50;;;;;;5070456;28;20127;-54
2022/03/08 05:43:44;;;;;;;22.40;12.93;;;3.80;52.60;;;;;;5070086;28;20033;-60
2022/03/08 05:46:10;;;;;;;18.48;12.35;;;3.90;52.80;;;;;;5069465;28;20020;-55
2022/03/08 05:48:36;;;;;;;18.67;12.63;;;3.90;52.60;;;;;;5069907;28;20033;-56
2022/03/08 05:51:02;;;;;;;19.10;13.60;;;3.90;52.40;;;;;;5069072;28;20025;-56
2022/03/08 05:53:28;;;;;;;25.55;12.63;;;4.00;52.30;;;;;;5052942;28;20071;-56
2022/03/08 05:55:53;;;;;;;19.27;12.48;;;4.00;52.10;;;;;;5070727;28;20024;-55
2022/03/08 05:58:19;;;;;;;24.67;13.95;;;3.90;52.00;;;;;;5070900;28;20021;-54
2022/03/08 06:00:45;;;;;;;23.70;12.65;;;3.90;52.00;;;;;;5070845;28;20029;-60
2022/03/08 06:03:10;;;;;;;26.55;13.82;;;3.90;51.90;;;;;;5068824;28;20032;-55
2022/03/08 06:05:36;;;;;;;24.20;12.68;;;3.90;52.10;;;;;;5071500;28;20093;-55
2022/03/08 06:08:03;;;;;;;20.20;12.80;;;3.90;52.00;;;;;;5070837;28;20025;-58
2022/03/08 06:10:29;;;;;;;19.55;12.70;;;4.00;51.80;;;;;;5070774;28;20021;-56
2022/03/08 06:12:56;;;;;;;18.85;13.65;;;4.00;51.90;;;;;;5072374;28;20071;-55
2022/03/08 06:15:21;;;;;;;21.27;12.73;;;4.00;51.70;;;;;;5074393;28;20020;-56
2022/03/08 06:17:47;;;;;;;21.02;13.88;;;4.00;51.60;;;;;;5074021;28;20124;-59
2022/03/08 06:20:13;;;;;;;16.80;11.60;;;4.10;51.70;;;;;;5074570;28;20028;-54
2022/03/08 06:22:39;;;;;;;19.75;12.80;;;4.10;51.70;;;;;;5072980;28;20102;-57
2022/03/08 06:25:10;;;;;;;18.85;12.95;;;4.10;51.60;;;;;;5074685;28;20024;-56
2022/03/08 06:27:36;;;;;;;23.60;12.85;;;4.20;51.60;;;;;;5074938;28;20028;-58
2022/03/08 06:30:04;;;;;;;26.75;14.55;;;4.20;51.50;;;;;;5074459;28;20100;-56
2022/03/08 06:32:29;;;;;;;25.13;14.07;;;4.30;51.50;;;;;;5073436;28;20021;-55
2022/03/08 06:34:55;;;;;;;21.75;13.50;;;4.40;51.30;;;;;;5072071;28;20385;-54
2022/03/08 06:37:21;;;;;;;24.08;12.68;;;4.40;51.40;;;;;;5056491;28;20024;-56
2022/03/08 06:39:47;;;;;;;24.98;13.43;;;4.50;51.10;;;;;;5072757;28;20056;-55
2022/03/08 06:42:13;;;;;;;20.65;13.05;;;4.70;51.00;;;;;;5074132;28;20033;-58
2022/03/08 06:44:39;;;;;;;24.10;13.40;;;4.70;50.60;;;;;;5072643;28;20027;-60
2022/03/08 06:47:09;;;;;;;28.52;13.32;;;4.80;50.50;;;;;;5073593;28;20431;-57
2022/03/08 06:49:37;;;;;;;27.83;13.20;;;4.90;50.50;;;;;;5073148;28;20377;-58
2022/03/08 06:52:03;;;;;;;21.25;13.50;;;5.00;50.50;;;;;;5074109;28;20027;-60
2022/03/08 06:54:29;;;;;;;23.77;12.50;;;5.00;50.30;;;;;;5073857;28;20082;-55
2022/03/08 06:56:55;;;;;;;28.48;14.00;;;5.10;50.30;;;;;;5072045;28;20044;-56
2022/03/08 06:59:21;;;;;;;19.88;12.73;;;5.10;50.30;;;;;;5073612;28;20024;-56
2022/03/08 07:01:47;;;;;;;23.38;12.68;;;5.20;50.20;;;;;;5071917;28;20167;-60
2022/03/08 07:04:14;;;;;;;21.17;12.43;;;5.30;50.00;;;;;;5072228;28;20114;-57
2022/03/08 07:06:40;;;;;;;19.20;12.38;;;5.30;49.90;;;;;;5071928;28;20028;-57
2022/03/08 07:09:06;;;;;;;22.65;12.40;;;5.40;49.50;;;;;;5073491;28;20415;-58
2022/03/08 07:11:35;;;;;;;25.98;15.43;;;5.40;49.50;;;;;;5073862;28;20112;-56
2022/03/08 07:14:01;;;;;;;32.15;15.02;;;6.40;51.20;;;;;;5073432;28;20097;-56
2022/03/08 07:16:27;;;;;;;38.00;15.55;;;9.60;49.40;;;;;;5074480;28;20107;-55
2022/03/08 07:18:52;;;;;;;27.05;15.43;;;12.70;43.70;;;;;;5071851;28;20056;-58
2022/03/08 07:21:18;;;;;;;21.20;14.32;;;15.30;37.80;;;;;;5065274;28;20135;-51
2022/03/08 07:23:44;;;;;;;29.52;15.07;;;17.10;34.50;;;;;;5052660;28;20040;-54
2022/03/08 07:26:10;;;;;;;23.42;13.70;;;18.60;31.50;;;;;;5053734;28;20025;-57
2022/03/08 07:28:35;;;;;;;18.10;13.27;;;19.90;30.00;;;;;;5054014;28;20024;-55
2022/03/08 07:31:02;;;;;;;20.13;13.70;;;21.10;28.20;;;;;;5053565;28;20117;-55
2022/03/08 07:33:28;;;;;;;20.48;13.10;;;22.10;26.80;;;;;;5053876;28;20044;-55
2022/03/08 07:38:38;;;;;;;19.70;13.43;;;24.10;25.50;;;;;;5053426;28;20035;-55
2022/03/08 07:41:05;;;;;;;24.95;12.98;;;25.10;24.50;;;;;;5053022;28;20025;-56
2022/03/08 07:43:30;;;;;;;17.02;13.32;;;26.00;24.30;;;;;;5053207;28;20023;-55
2022/03/08 07:45:56;;;;;;;15.45;12.45;;;26.50;23.50;;;;;;5052845;28;20110;-56
2022/03/08 07:48:22;;;;;;;18.25;13.25;;;27.40;23.20;;;;;;5053473;28;20029;-56
2022/03/08 07:50:49;;;;;;;21.85;14.15;;;28.20;22.70;;;;;;5053045;28;20091;-54
2022/03/08 07:53:15;;;;;;;22.45;12.57;;;28.80;21.90;;;;;;5053017;28;20076;-56
2022/03/08 07:55:41;;;;;;;19.52;12.85;;;29.60;22.10;;;;;;5052685;28;20045;-56
2022/03/08 07:58:11;;;;;;;26.98;12.93;;;30.40;21.40;;;;;;5034970;28;20021;-60
2022/03/08 08:00:38;;;;;;;21.63;12.70;;;30.90;20.90;;;;;;5035439;28;20103;-56
2022/03/08 08:03:03;;;;;;;28.02;12.27;;;30.90;20.80;;;;;;5052334;28;20112;-57
2022/03/08 08:05:29;;;;;;;21.88;12.98;;;31.30;20.70;;;;;;5035425;28;20447;-59
2022/03/08 08:07:55;;;;;;;17.92;11.57;;;30.90;20.60;;;;;;5034825;28;20029;-56
2022/03/08 08:10:21;;;;;;;22.80;12.32;;;30.60;20.40;;;;;;5035334;28;20025;-59
2022/03/08 08:12:47;;;;;;;19.05;12.70;;;30.20;20.30;;;;;;5052950;28;20068;-56
2022/03/08 08:15:13;;;;;;;14.23;12.35;;;30.10;20.50;;;;;;5052406;28;20426;-56
2022/03/08 08:17:38;;;;;;;16.30;11.77;;;30.20;20.40;;;;;;5034884;28;20108;-57
2022/03/08 08:20:05;;;;;;;19.15;13.18;;;30.00;20.50;;;;;;5034189;28;20110;-57
2022/03/08 08:22:31;;;;;;;19.70;13.23;;;30.10;20.30;;;;;;5068556;28;20044;-57
2022/03/08 08:24:57;;;;;;;19.10;11.77;;;29.90;20.20;;;;;;5072458;28;20033;-57
2022/03/08 08:27:23;;;;;;;23.85;12.15;;;29.60;20.30;;;;;;5072655;28;20358;-57
2022/03/08 08:29:48;;;;;;;27.23;13.40;;;29.70;20.50;;;;;;5072245;28;20112;-52
2022/03/08 08:32:14;;;;;;;28.42;12.75;;;29.20;20.20;;;;;;5070587;28;20060;-51
2022/03/08 08:34:40;;;;;;;18.10;12.35;;;27.90;20.20;;;;;;5072268;28;20423;-57
2022/03/08 08:37:07;;;;;;;27.45;11.93;;;25.60;20.80;;;;;;5071840;28;20025;-57
2022/03/08 08:39:33;;;;;;;16.65;11.10;;;23.40;22.00;;;;;;5072689;28;20107;-57
2022/03/08 08:41:59;;;;;;;20.52;10.95;;;21.70;23.30;;;;;;5070664;28;20527;-52
2022/03/08 08:44:26;;;;;;;19.70;11.98;;;20.30;24.20;;;;;;5072308;28;20170;-56
2022/03/08 08:46:53;;;;;;;18.33;11.70;;;19.00;25.70;;;;;;5071087;28;20365;-56
2022/03/08 08:49:19;;;;;;;17.92;11.20;;;18.10;26.00;;;;;;5069445;28;20333;-56
2022/03/08 08:51:45;;;;;;;16.25;11.30;;;17.40;26.60;;;;;;5069929;28;20111;-51
2022/03/08 08:54:11;;;;;;;20.70;12.05;;;16.60;27.30;;;;;;5069873;28;20124;-56
2022/03/08 08:56:38;;;;;;;21.25;12.43;;;15.70;28.20;;;;;;5070702;28;20024;-58
2022/03/08 08:59:05;;;;;;;27.13;14.07;;;15.10;28.80;;;;;;5069079;28;20031;-55
2022/03/08 09:01:32;;;;;;;22.98;12.02;;;14.50;29.50;;;;;;5071187;28;20041;-54
2022/03/08 09:03:58;;;;;;;27.48;12.93;;;14.10;30.00;;;;;;5069569;28;20063;-58
2022/03/08 09:06:25;;;;;;;27.17;12.18;;;13.70;30.50;;;;;;5072045;28;20024;-55
2022/03/08 09:08:50;;;;;;;23.02;12.70;;;13.30;30.90;;;;;;5070593;28;20039;-57
2022/03/08 09:11:16;;;;;;;20.00;12.75;;;13.10;31.60;;;;;;5069830;28;20021;-54
2022/03/08 09:13:43;;;;;;;27.40;13.18;;;12.80;32.00;;;;;;5070120;28;20471;-54
2022/03/08 09:16:09;;;;;;;29.35;12.18;;;12.70;32.50;;;;;;5069924;28;20119;-54
2022/03/08 09:18:35;;;;;;;21.65;12.02;;;12.50;33.00;;;;;;5071762;28;20028;-57
2022/03/08 09:21:03;;;;;;;25.42;12.25;;;12.20;33.20;;;;;;5064858;28;20060;-51
2022/03/08 09:23:28;;;;;;;26.40;12.77;;;12.10;33.90;;;;;;5052024;28;20029;-53
2022/03/08 09:25:54;;;;;;;31.88;13.68;;;11.70;34.70;;;;;;5051605;28;20029;-52
2022/03/08 09:28:20;;;;;;;26.95;13.10;;;11.50;35.20;;;;;;5050899;28;20479;-58
2022/03/08 09:30:48;;;;;;;19.08;11.18;;;11.40;35.20;;;;;;5051660;28;20025;-52
2022/03/08 09:33:13;;;;;;;25.23;11.95;;;11.40;35.20;;;;;;5051308;28;20024;-56
2022/03/08 09:35:39;;;;;;;22.60;11.63;;;11.30;35.60;;;;;;5051858;28;20036;-56
2022/03/08 09:38:05;;;;;;;22.15;12.27;;;11.30;35.60;;;;;;5033426;28;20397;-56
2022/03/08 09:40:31;;;;;;;23.80;12.02;;;11.20;35.90;;;;;;5051395;28;20017;-56
2022/03/08 09:42:57;;;;;;;17.83;11.25;;;11.20;36.10;;;;;;5033846;28;20025;-55
2022/03/08 09:45:23;;;;;;;25.98;12.13;;;11.20;36.10;;;;;;5050852;28;20124;-53
2022/03/08 09:47:49;;;;;;;25.63;11.77;;;11.10;36.50;;;;;;5050706;28;20021;-54
2022/03/08 09:50:16;;;;;;;24.98;10.90;;;11.10;36.40;;;;;;5050967;28;20032;-57
2022/03/08 09:52:42;;;;;;;21.38;11.25;;;11.20;36.60;;;;;;5051618;28;20025;-55
2022/03/08 09:55:11;;;;;;;22.85;11.85;;;10.90;37.00;;;;;;5050771;28;20025;-56
2022/03/08 09:57:37;;;;;;;21.58;11.63;;;10.80;36.90;;;;;;5033714;28;20029;-56
2022/03/08 10:00:06;;;;;;;18.92;10.13;;;10.90;37.20;;;;;;5050864;28;20025;-55
2022/03/08 10:02:48;;;;;;;23.08;11.43;;;10.80;37.10;;;;;;5032949;28;20025;-62
2022/03/08 10:05:14;;;;;;;29.38;11.77;;;10.80;37.50;;;;;;5032477;28;20033;-59
2022/03/08 10:07:59;;;;;;;20.08;11.02;;;10.80;37.60;;;;;;5033190;28;20065;-61
2022/03/08 10:10:25;;;;;;;33.58;13.38;;;10.80;37.50;;;;;;5051255;28;20549;-57
2022/03/08 10:12:58;;;;;;;20.15;11.20;;;10.80;37.70;;;;;;5033095;28;20117;-58
2022/03/08 10:15:24;;;;;;;26.60;13.80;;;10.70;37.80;;;;;;5050403;28;20024;-53
2022/03/08 10:17:50;;;;;;;29.95;11.88;;;10.70;37.90;;;;;;5050860;28;20041;-57
2022/03/08 10:20:32;;;;;;;17.27;11.40;;;10.70;38.10;;;;;;5050315;28;20110;-59
2022/03/08 10:22:58;;;;;;;29.60;12.00;;;11.00;37.80;;;;;;5050834;28;20040;-58
2022/03/08 10:25:28;;;;;;;27.63;12.15;;;11.10;37.50;;;;;;5050687;28;20037;-55
2022/03/08 10:27:54;;;;;;;32.13;11.07;;;11.00;37.30;;;;;;5032686;28;20025;-54
2022/03/08 10:30:28;;;;;;;23.95;11.32;;;10.80;37.50;;;;;;5032883;28;20025;-56
2022/03/08 10:32:56;;;;;;;32.15;11.18;;;10.80;37.70;;;;;;5032690;28;20033;-51
2022/03/08 10:35:31;;;;;;;10.88;5.38;;;10.70;37.30;;;;;;5032511;28;20300;-55
2022/03/08 10:38:03;;;;;;;15.75;5.25;;;10.40;35.30;;;;;;5033117;28;20032;-57
2022/03/08 10:40:35;;;;;;;16.25;5.80;;;10.20;36.00;;;;;;5051164;28;20052;-59
2022/03/08 10:43:04;;;;;;;12.57;6.18;;;10.20;36.20;;;;;;5050977;28;20029;-54
2022/03/08 10:45:32;;;;;;;26.67;6.88;;;10.30;36.30;;;;;;5033018;28;20040;-58
2022/03/08 10:47:58;;;;;;;22.13;6.38;;;10.40;36.90;;;;;;5050844;28;20021;-56
2022/03/08 10:50:31;;;;;;;14.13;6.07;;;10.40;36.50;;;;;;5032307;28;20047;-54
2022/03/08 10:52:59;;;;;;;22.48;8.02;;;10.40;36.40;;;;;;5050817;28;20091;-56
2022/03/08 10:55:33;;;;;;;23.38;10.38;;;10.60;36.40;;;;;;5031752;28;20441;-57
2022/03/08 10:58:03;;;;;;;20.08;8.80;;;10.60;37.00;;;;;;5050929;28;20021;-58
2022/03/08 11:00:32;;;;;;;14.07;7.68;;;10.80;36.70;;;;;;5036198;28;20029;-57
2022/03/08 11:03:05;;;;;;;25.95;10.82;;;11.00;36.30;;;;;;5053960;28;20098;-55
2022/03/08 11:05:33;;;;;;;17.48;8.50;;;11.00;36.50;;;;;;5054176;28;20036;-59
2022/03/08 11:07:59;;;;;;;21.40;10.48;;;11.00;36.40;;;;;;5035834;28;20021;-54
2022/03/08 11:10:27;;;;;;;16.55;8.40;;;11.00;35.90;;;;;;5053197;28;20029;-55
2022/03/08 11:12:54;;;;;;;18.27;9.25;;;11.00;35.60;;;;;;5019524;28;20353;-56
2022/03/08 11:15:21;;;;;;;21.75;8.57;;;10.70;36.10;;;;;;5036124;28;20035;-54
2022/03/08 11:17:51;;;;;;;17.00;8.43;;;10.80;36.50;;;;;;5035979;28;20029;-54
2022/03/08 11:20:19;;;;;;;25.40;8.32;;;11.20;36.40;;;;;;5052918;28;20145;-55
2022/03/08 11:22:47;;;;;;;15.05;8.18;;;11.50;35.70;;;;;;5054091;28;20033;-54
2022/03/08 11:25:16;;;;;;;20.98;7.97;;;11.40;35.30;;;;;;5053643;28;20036;-54
2022/03/08 11:27:44;;;;;;;15.80;7.65;;;11.50;35.20;;;;;;5054390;28;20032;-55
2022/03/08 11:30:16;;;;;;;18.92;8.55;;;11.40;34.90;;;;;;5053639;28;20036;-55
2022/03/08 11:33:13;;;;;;;16.85;8.65;;;11.40;34.90;;;;;;5053415;28;20056;-54
2022/03/08 11:35:57;;;;;;;20.60;9.63;;;11.50;35.00;;;;;;5036016;28;20025;-57
2022/03/08 11:38:23;;;;;;;22.25;9.45;;;11.50;35.30;;;;;;5053387;28;20025;-58
2022/03/08 11:40:53;;;;;;;22.08;9.55;;;11.60;35.60;;;;;;5053756;28;20564;-57
2022/03/08 11:43:20;;;;;;;28.70;13.18;;;11.80;35.30;;;;;;5035150;28;20029;-58
2022/03/08 11:45:48;;;;;;;28.55;11.32;;;11.90;35.10;;;;;;5053411;28;20110;-63
2022/03/08 11:48:19;;;;;;;19.23;9.40;;;11.70;35.20;;;;;;5035202;28;20040;-57
2022/03/08 11:51:03;;;;;;;14.15;8.00;;;11.80;35.30;;;;;;5053497;28;20195;-58
2022/03/08 11:53:29;;;;;;;18.17;10.43;;;11.90;35.10;;;;;;5035288;28;20457;-56
2022/03/08 11:55:56;;;;;;;12.00;7.47;;;12.00;34.40;;;;;;5035576;28;20040;-57
2022/03/08 11:58:40;;;;;;;17.77;7.45;;;12.20;33.90;;;;;;5053516;28;20093;-56
2022/03/08 12:01:06;;;;;;;14.30;7.47;;;12.00;34.30;;;;;;5035574;28;20029;-58
2022/03/08 12:03:32;;;;;;;25.55;12.23;;;12.00;33.90;;;;;;5035059;28;20040;-58
2022/03/08 12:05:58;;;;;;;13.57;7.88;;;12.00;33.80;;;;;;5035193;28;20031;-57
2022/03/08 12:08:29;;;;;;;13.93;6.93;;;11.80;33.20;;;;;;5053023;28;20102;-58
2022/03/08 12:10:58;;;;;;;17.85;6.82;;;11.70;33.40;;;;;;5035120;28;20050;-58
2022/03/08 12:13:25;;;;;;;18.83;7.15;;;11.60;33.10;;;;;;5052677;28;20033;-59
2022/03/08 12:16:09;;;;;;;15.70;6.97;;;11.60;33.80;;;;;;5034693;28;20056;-57
2022/03/08 12:18:54;;;;;;;16.48;6.93;;;11.90;33.50;;;;;;5035340;28;20047;-54
2022/03/08 12:21:23;;;;;;;16.80;7.07;;;12.00;33.00;;;;;;5048233;28;20373;-55
2022/03/08 12:24:01;;;;;;;13.77;7.38;;;11.90;32.90;;;;;;5072491;28;20123;-55
2022/03/08 12:26:36;;;;;;;14.07;6.55;;;12.00;32.90;;;;;;5070432;28;20354;-53
2022/03/08 12:29:22;;;;;;;23.20;9.48;;;11.90;32.40;;;;;;5072430;28;20051;-55
2022/03/08 12:31:57;;;;;;;16.50;8.02;;;11.90;33.00;;;;;;5071196;28;20381;-51
2022/03/08 12:34:36;;;;;;;15.85;8.32;;;12.30;32.60;;;;;;5071601;28;20108;-57
2022/03/08 12:37:07;;;;;;;19.77;9.45;;;12.80;32.30;;;;;;5072063;28;20020;-60
2022/03/08 12:39:57;;;;;;;14.95;7.55;;;13.20;31.70;;;;;;5072347;28;20032;-57